Time;durP1;ratioP1;P1;durP2;ratioP2;P2;SDS_P1;SDS_P2;PMS_P1;PMS_P2;Temp;Humidity;BMP_temperature;BMP_pressure;BME280_temperature;BME280_humidity;BME280_pressure;Samples;Min_cycle;Max_cycle;Signal;HPM_P1;HPM_P2
2022/05/15 00:01:59;;;;;;;;;15.00;13.00;;;;;34.98;19.83;101222.28;5075591;27;45679;-83
2022/05/15 00:04:24;;;;;;;;;14.67;12.67;;;;;35.02;20.14;101212.75;5076934;28;48071;-83
2022/05/15 00:06:50;;;;;;;;;13.33;12.33;;;;;35.14;20.34;101233.00;5077594;27;45347;-83
2022/05/15 00:09:15;;;;;;;;;15.00;15.00;;;;;34.83;20.14;101167.31;5094768;27;45833;-83
2022/05/15 00:11:41;;;;;;;;;12.00;12.00;;;;;35.26;20.12;101232.06;5094222;27;45385;-83
2022/05/15 00:14:06;;;;;;;;;12.67;12.00;;;;;35.40;19.72;101246.66;5077614;27;47950;-83
2022/05/15 00:16:32;;;;;;;;;12.67;10.67;;;;;35.05;20.02;101173.94;5078533;27;45444;-83
2022/05/15 00:18:58;;;;;;;;;15.67;13.00;;;;;35.29;20.38;101206.09;5079007;27;45419;-83
2022/05/15 00:21:25;;;;;;;;;11.00;11.00;;;;;35.16;20.08;101189.63;5078693;28;45610;-83
2022/05/15 00:23:51;;;;;;;;;13.00;10.67;;;;;35.08;20.52;101170.94;5077209;27;47342;-83
2022/05/15 00:26:16;;;;;;;;;14.00;14.00;;;;;35.42;20.06;101214.34;5077138;28;45347;-83
2022/05/15 00:28:42;;;;;;;;;10.00;10.00;;;;;34.97;19.90;101146.09;5078609;28;45303;-83
2022/05/15 00:31:08;;;;;;;;;12.33;12.33;;;;;35.15;20.50;101194.28;5078362;27;45516;-83
2022/05/15 00:33:33;;;;;;;;;10.33;10.33;;;;;35.22;20.25;101214.00;5078400;27;46354;-83
2022/05/15 00:35:59;;;;;;;;;14.00;12.33;;;;;34.88;20.38;101144.91;5077298;27;45643;-83
2022/05/15 00:38:24;;;;;;;;;12.67;12.67;;;;;34.80;20.15;101148.28;5077259;27;45320;-83
2022/05/15 00:40:50;;;;;;;;;11.00;8.67;;;;;35.06;20.40;101203.25;5076768;27;45339;-83
2022/05/15 00:43:49;;;;;;;;;9.67;9.33;;;;;35.33;20.15;101222.34;5078292;27;46373;-83
2022/05/15 00:46:23;;;;;;;;;13.67;11.67;;;;;35.21;20.13;101209.47;5018829;28;46720;-83
2022/05/15 00:48:51;;;;;;;;;10.67;10.67;;;;;35.07;20.00;101205.03;5035941;28;45562;-84
2022/05/15 00:51:43;;;;;;;;;9.67;9.67;;;;;35.07;20.13;101220.69;5035681;28;45402;-84
2022/05/15 00:54:21;;;;;;;;;8.33;8.33;;;;;34.98;20.46;101216.75;5035572;28;45525;-83
2022/05/15 00:56:53;;;;;;;;;9.33;9.33;;;;;35.07;20.13;101209.66;5035273;28;45415;-83
2022/05/15 00:59:22;;;;;;;;;7.67;6.00;;;;;35.02;20.17;101204.50;5035630;28;45436;-83
2022/05/15 01:01:48;;;;;;;;;10.33;9.33;;;;;35.06;20.26;101205.16;5018762;28;45385;-83
2022/05/15 01:04:13;;;;;;;;;12.33;8.00;;;;;34.97;20.19;101176.41;5018753;28;47147;-83
2022/05/15 01:06:43;;;;;;;;;8.00;8.00;;;;;34.82;19.91;101135.25;5035339;28;45279;-84
2022/05/15 01:09:09;;;;;;;;;10.00;7.33;;;;;35.20;20.34;101185.63;5035609;28;45428;-84
2022/05/15 01:11:37;;;;;;;;;9.67;8.00;;;;;35.15;20.30;101174.97;5034916;28;45569;-83
2022/05/15 01:14:05;;;;;;;;;11.00;8.00;;;;;35.42;19.86;101195.88;5034786;28;45406;-84
2022/05/15 01:16:32;;;;;;;;;9.33;9.33;;;;;35.35;19.94;101178.94;5018579;28;45887;-84
2022/05/15 01:19:00;;;;;;;;;8.00;8.00;;;;;35.38;19.82;101198.00;5035598;28;45530;-83
2022/05/15 01:21:33;;;;;;;;;10.33;9.67;;;;;35.30;20.14;101183.03;5049364;28;45414;-84
2022/05/15 01:24:00;;;;;;;;;8.00;8.00;;;;;35.27;19.69;101166.72;5076178;28;47483;-83
2022/05/15 01:26:26;;;;;;;;;9.33;9.33;;;;;35.38;19.91;101178.69;5076314;27;45398;-83
2022/05/15 01:28:53;;;;;;;;;12.33;10.00;;;;;35.25;19.94;101169.63;5076542;28;45397;-83
2022/05/15 01:31:20;;;;;;;;;9.33;8.00;;;;;34.97;19.83;101140.59;5095299;27;45422;-83
2022/05/15 01:33:49;;;;;;;;;8.00;7.00;;;;;34.99;20.29;101160.63;5113622;27;48020;-84
2022/05/15 01:36:17;;;;;;;;;6.00;6.00;;;;;34.82;20.15;101142.66;5098277;27;45491;-83
2022/05/15 01:38:43;;;;;;;;;8.00;8.00;;;;;34.95;20.20;101161.84;5097782;27;45359;-83
2022/05/15 01:41:10;;;;;;;;;7.67;7.67;;;;;34.68;20.25;101129.91;5096325;27;50918;-83
2022/05/15 01:43:36;;;;;;;;;7.67;7.67;;;;;34.74;20.25;101142.31;5097633;27;46200;-82
2022/05/15 01:46:01;;;;;;;;;9.67;8.67;;;;;34.81;19.97;101150.03;5113854;27;45706;-83
2022/05/15 01:48:26;;;;;;;;;7.33;6.00;;;;;34.98;19.89;101168.03;5096646;27;45420;-82
2022/05/15 01:50:53;;;;;;;;;7.67;7.67;;;;;35.02;20.29;101161.28;5098036;27;45385;-83
2022/05/15 01:53:18;;;;;;;;;8.33;6.33;;;;;34.85;19.81;101132.28;5097515;27;46309;-83
2022/05/15 01:55:44;;;;;;;;;9.33;9.33;;;;;34.80;20.19;101120.72;5097694;27;45409;-82
2022/05/15 01:58:10;;;;;;;;;6.67;6.33;;;;;34.87;19.95;101118.38;5097815;27;45347;-83
2022/05/15 02:00:37;;;;;;;;;7.00;7.00;;;;;34.82;19.96;101115.06;5097607;27;45428;-83
2022/05/15 02:03:02;;;;;;;;;8.67;8.00;;;;;34.97;20.36;101154.38;5097673;27;46471;-83
2022/05/15 02:05:28;;;;;;;;;7.00;7.00;;;;;34.87;20.43;101137.66;5097616;27;45450;-83
2022/05/15 02:07:54;;;;;;;;;6.00;6.00;;;;;34.70;20.26;101116.91;5097451;27;45444;-83
2022/05/15 02:10:19;;;;;;;;;5.00;5.00;;;;;34.84;20.08;101136.00;5097689;27;45361;-83
2022/05/15 02:12:45;;;;;;;;;2.00;2.00;;;;;34.77;20.05;101098.88;5097173;27;46424;-83
2022/05/15 02:15:11;;;;;;;;;8.00;6.00;;;;;35.13;19.90;101135.59;5097513;27;45543;-83
2022/05/15 02:17:37;;;;;;;;;7.33;6.00;;;;;35.05;19.86;101127.06;5097644;27;45420;-82
2022/05/15 02:20:04;;;;;;;;;7.67;6.33;;;;;35.07;20.14;101124.19;5097478;27;45407;-82
2022/05/15 02:22:30;;;;;;;;;7.00;6.00;;;;;35.00;19.87;101112.75;5096777;27;46489;-83
2022/05/15 02:24:55;;;;;;;;;6.67;5.33;;;;;35.07;19.91;101115.91;5097032;27;45370;-83
2022/05/15 02:27:21;;;;;;;;;5.67;5.67;;;;;34.98;19.89;101112.88;5095529;27;45686;-83
2022/05/15 02:29:46;;;;;;;;;6.00;6.00;;;;;34.76;20.36;101091.59;5092684;27;45594;-83
2022/05/15 02:32:12;;;;;;;;;6.00;6.00;;;;;34.75;19.93;101084.31;5076713;28;45399;-83
2022/05/15 02:34:37;;;;;;;;;5.00;5.00;;;;;34.81;20.14;101113.31;5076490;28;45176;-83
2022/05/15 02:37:02;;;;;;;;;5.00;5.00;;;;;34.76;19.91;101099.88;5076496;27;45479;-84
2022/05/15 02:39:28;;;;;;;;;5.33;5.33;;;;;34.62;20.13;101116.59;5075294;28;45536;-84
2022/05/15 02:41:53;;;;;;;;;5.33;5.33;;;;;34.49;20.40;101095.50;5074824;28;46592;-83
2022/05/15 02:44:18;;;;;;;;;7.33;6.33;;;;;34.44;20.21;101072.06;5076300;27;45205;-83
2022/05/15 02:46:44;;;;;;;;;8.00;6.67;;;;;34.42;19.82;101065.81;5074694;27;54993;-83
2022/05/15 02:51:53;;;;;;;;;7.67;6.00;;;;;34.09;19.81;101012.28;5075947;27;45329;-83
2022/05/15 02:54:19;;;;;;;;;7.67;6.33;;;;;34.69;20.21;101116.00;5092014;27;45296;-83
2022/05/15 02:56:45;;;;;;;;;6.00;6.00;;;;;34.25;19.90;101053.28;5075025;28;45354;-83
2022/05/15 02:59:11;;;;;;;;;6.00;4.33;;;;;34.35;20.32;101077.28;5075020;27;45391;-83
2022/05/15 03:01:37;;;;;;;;;6.00;6.00;;;;;34.31;20.66;101111.56;5076044;28;45994;-83
2022/05/15 03:04:03;;;;;;;;;7.00;6.00;;;;;34.08;20.47;101085.75;5074949;28;45577;-82
2022/05/15 03:06:28;;;;;;;;;3.67;3.67;;;;;34.14;20.67;101123.81;5074729;27;45442;-83
2022/05/15 03:08:53;;;;;;;;;5.67;5.67;;;;;33.71;20.77;101058.16;5074932;27;45686;-83
2022/05/15 03:11:19;;;;;;;;;5.00;5.00;;;;;34.08;20.39;101096.75;5075921;27;45648;-83
2022/05/15 03:13:45;;;;;;;;;5.67;5.67;;;;;34.18;20.45;101125.34;5075991;28;45363;-83
2022/05/15 03:16:12;;;;;;;;;5.67;5.00;;;;;33.90;20.17;101076.13;5092062;27;45358;-83
2022/05/15 03:18:41;;;;;;;;;5.33;5.33;;;;;33.96;20.72;101081.16;5074767;28;45475;-82
2022/05/15 03:21:07;;;;;;;;;5.33;5.33;;;;;34.00;20.90;101082.69;5091347;27;48158;-83
2022/05/15 03:23:33;;;;;;;;;5.00;5.00;;;;;34.06;20.72;101095.09;5075864;28;45416;-84
2022/05/15 03:25:58;;;;;;;;;5.00;5.00;;;;;34.11;20.43;101107.53;5091662;27;45350;-81
2022/05/15 03:28:23;;;;;;;;;9.00;6.33;;;;;34.03;20.62;101085.19;5076016;27;45409;-79
2022/05/15 03:30:49;;;;;;;;;6.33;6.33;;;;;33.92;20.50;101079.63;5075537;27;45440;-79
2022/05/15 03:33:15;;;;;;;;;6.00;6.00;;;;;33.90;20.36;101074.22;5075774;28;45357;-79
2022/05/15 03:35:40;;;;;;;;;6.33;6.33;;;;;34.07;20.71;101095.00;5075498;28;45909;-79
2022/05/15 03:38:07;;;;;;;;;5.00;5.00;;;;;33.90;20.49;101077.00;5075834;28;45268;-79
2022/05/15 03:40:33;;;;;;;;;6.33;6.33;;;;;34.15;20.63;101100.81;5075291;27;46615;-79
2022/05/15 03:42:59;;;;;;;;;7.00;7.00;;;;;34.03;20.45;101064.03;5075567;28;45259;-79
2022/05/15 03:45:25;;;;;;;;;5.33;4.67;;;;;34.01;20.54;101068.81;5075823;27;45204;-79
2022/05/15 03:47:55;;;;;;;;;6.33;6.33;;;;;34.16;20.79;101090.66;5075543;27;45628;-79
2022/05/15 03:50:23;;;;;;;;;5.00;4.67;;;;;34.27;20.67;101095.34;5074160;28;47193;-79
2022/05/15 03:52:49;;;;;;;;;5.67;5.67;;;;;34.19;20.74;101066.53;5075329;28;45368;-79
2022/05/15 03:55:15;;;;;;;;;6.00;6.00;;;;;34.39;20.38;101099.06;5075771;28;45432;-79
2022/05/15 03:57:41;;;;;;;;;6.67;6.67;;;;;34.31;20.72;101102.44;5075448;28;45567;-79
2022/05/15 04:00:10;;;;;;;;;6.00;6.00;;;;;34.29;20.55;101090.63;5075646;28;45524;-79
2022/05/15 04:02:35;;;;;;;;;5.33;4.00;;;;;34.44;20.64;101096.84;5075289;28;45362;-79
2022/05/15 04:05:01;;;;;;;;;5.00;5.00;;;;;34.31;20.50;101077.63;5075072;27;45385;-80
2022/05/15 04:07:26;;;;;;;;;7.00;6.00;;;;;34.33;20.64;101070.13;5075522;28;45385;-80
2022/05/15 04:09:51;;;;;;;;;6.00;6.00;;;;;34.36;20.45;101079.03;5074812;28;45369;-81
2022/05/15 04:12:17;;;;;;;;;5.00;5.00;;;;;34.33;20.88;101060.00;5073808;28;45488;-81
2022/05/15 04:14:42;;;;;;;;;6.00;6.00;;;;;34.04;20.57;101018.16;5075360;27;45386;-79
2022/05/15 04:17:08;;;;;;;;;6.00;6.00;;;;;34.26;20.62;101074.31;5075046;28;45173;-79
2022/05/15 04:19:35;;;;;;;;;9.00;7.00;;;;;34.02;21.05;101075.19;5074894;28;46112;-79
2022/05/15 04:22:03;;;;;;;;;6.67;6.00;;;;;33.43;21.22;101013.47;5075065;28;45270;-80
2022/05/15 04:24:29;;;;;;;;;5.33;5.33;;;;;33.48;21.63;101051.63;5075172;27;45361;-80
2022/05/15 04:26:54;;;;;;;;;7.00;7.00;;;;;33.38;21.62;101059.66;5075021;27;45601;-80
2022/05/15 04:29:20;;;;;;;;;7.00;7.00;;;;;33.48;21.83;101079.13;5074055;28;46642;-80
2022/05/15 04:31:46;;;;;;;;;6.33;5.67;;;;;33.45;21.75;101088.47;5054495;28;45623;-80
2022/05/15 04:34:12;;;;;;;;;5.33;4.67;;;;;33.39;21.26;101082.53;5070221;27;45368;-79
2022/05/15 04:36:38;;;;;;;;;8.33;6.67;;;;;33.44;21.57;101063.84;5054538;28;45427;-80
2022/05/15 04:39:05;;;;;;;;;7.00;6.00;;;;;33.64;21.57;101081.63;5054493;28;46468;-80
2022/05/15 04:41:31;;;;;;;;;3.67;3.67;;;;;33.53;21.53;101056.78;5053046;28;46302;-80
2022/05/15 04:43:57;;;;;;;;;6.67;6.00;;;;;33.75;21.38;101067.09;5054356;28;45389;-80
2022/05/15 04:46:25;;;;;;;;;5.67;5.67;;;;;33.70;21.39;101050.94;5054504;28;45495;-79
2022/05/15 04:48:51;;;;;;;;;5.67;5.67;;;;;33.61;20.90;101035.09;5054505;28;46160;-79
2022/05/15 04:51:17;;;;;;;;;6.00;6.00;;;;;33.75;21.04;101065.19;5073454;27;45714;-80
2022/05/15 04:53:42;;;;;;;;;6.00;5.00;;;;;33.69;21.45;101057.41;5058037;28;45319;-81
2022/05/15 04:56:07;;;;;;;;;6.00;5.00;;;;;33.66;20.92;101063.16;5058165;28;45388;-81
2022/05/15 04:58:33;;;;;;;;;5.67;5.67;;;;;33.56;21.39;101057.44;5073274;27;48174;-81
2022/05/15 05:00:58;;;;;;;;;6.00;6.00;;;;;33.59;21.01;101048.09;5073179;28;45479;-82
2022/05/15 05:03:23;;;;;;;;;5.00;5.00;;;;;33.71;21.15;101082.94;5057518;28;45571;-81
2022/05/15 05:05:49;;;;;;;;;8.00;7.00;;;;;33.63;21.02;101046.84;5057791;28;45549;-81
2022/05/15 05:08:14;;;;;;;;;8.00;5.67;;;;;33.68;20.67;101056.56;5073301;28;48047;-80
2022/05/15 05:10:40;;;;;;;;;5.00;4.33;;;;;33.76;20.73;101089.03;5057506;28;45376;-80
2022/05/15 05:13:06;;;;;;;;;6.67;4.33;;;;;33.71;20.66;101087.56;5057522;28;45405;-80
2022/05/15 05:15:32;;;;;;;;;5.00;5.00;;;;;33.55;20.49;101079.56;5057696;28;45382;-79
2022/05/15 05:17:58;;;;;;;;;8.33;6.00;;;;;33.41;21.44;101091.56;5056632;28;45519;-80
2022/05/15 05:20:24;;;;;;;;;5.67;5.00;;;;;33.38;21.26;101086.31;5057380;28;45489;-81
2022/05/15 05:22:49;;;;;;;;;5.00;5.00;;;;;33.32;20.91;101072.00;5057232;28;45459;-81
2022/05/15 05:25:16;;;;;;;;;6.33;4.00;;;;;33.58;21.30;101098.59;5057436;28;45272;-81
2022/05/15 05:27:42;;;;;;;;;4.33;4.33;;;;;33.74;21.29;101099.25;5057228;28;46331;-81
2022/05/15 05:30:10;;;;;;;;;6.00;4.00;;;;;33.88;20.57;101087.22;5063718;27;45486;-81
2022/05/15 05:32:36;;;;;;;;;3.67;3.67;;;;;33.96;20.77;101092.16;5076149;27;45501;-81
2022/05/15 05:35:01;;;;;;;;;5.67;5.67;;;;;33.98;20.58;101095.66;5076131;28;45408;-74
2022/05/15 05:37:27;;;;;;;;;4.33;4.00;;;;;33.95;20.84;101101.41;5093179;27;47901;-73
2022/05/15 05:39:52;;;;;;;;;6.33;5.33;;;;;33.87;20.58;101098.34;5077399;28;45503;-72
2022/05/15 05:42:17;;;;;;;;;5.33;5.00;;;;;33.99;20.38;101092.78;5064475;27;45426;-72
2022/05/15 05:44:43;;;;;;;;;6.00;5.00;;;;;34.08;20.91;101106.88;5057492;28;45544;-73
2022/05/15 05:47:08;;;;;;;;;7.00;7.00;;;;;34.18;20.59;101114.34;5072423;28;49438;-74
2022/05/15 05:49:33;;;;;;;;;7.33;6.00;;;;;34.15;20.53;101092.53;5057254;28;45452;-74
2022/05/15 05:51:59;;;;;;;;;5.00;5.00;;;;;34.28;20.33;101102.63;5073004;28;45527;-69
2022/05/15 05:54:24;;;;;;;;;6.33;5.00;;;;;34.38;20.21;101111.09;5056070;28;45537;-74
2022/05/15 05:56:49;;;;;;;;;4.00;4.00;;;;;34.32;20.29;101095.94;5057204;28;45485;-74
2022/05/15 05:59:15;;;;;;;;;5.67;5.67;;;;;34.49;20.21;101111.16;5075051;27;45476;-71
2022/05/15 06:01:40;;;;;;;;;4.67;4.33;;;;;34.29;20.35;101087.88;5076535;27;45838;-71
2022/05/15 06:06:49;;;;;;;;;5.67;4.33;;;;;34.44;20.97;101105.13;5077183;28;45556;-74
2022/05/15 06:09:14;;;;;;;;;4.00;4.00;;;;;34.45;20.09;101084.84;5077277;27;45380;-72
2022/05/15 06:11:40;;;;;;;;;4.67;4.67;;;;;34.68;20.22;101097.72;5077433;28;45482;-69
2022/05/15 06:14:05;;;;;;;;;4.00;3.33;;;;;34.46;20.45;101050.78;5076882;27;45442;-73
2022/05/15 06:16:32;;;;;;;;;5.00;4.33;;;;;34.53;20.39;101032.78;5077105;28;45645;-71
2022/05/15 06:18:58;;;;;;;;;4.00;4.00;;;;;34.92;20.31;101093.19;5076080;27;45535;-76
2022/05/15 06:21:24;;;;;;;;;4.67;4.67;;;;;34.93;19.89;101087.53;5056974;28;45513;-72
2022/05/15 06:23:49;;;;;;;;;5.00;4.33;;;;;34.94;20.18;101088.44;5056594;28;45596;-71
2022/05/15 06:26:15;;;;;;;;;5.67;4.67;;;;;35.06;20.10;101076.41;5056568;28;46458;-76
2022/05/15 06:28:40;;;;;;;;;5.00;4.00;;;;;34.99;20.43;101080.66;5074570;27;45594;-73
2022/05/15 06:31:06;;;;;;;;;5.00;5.00;;;;;35.13;20.33;101088.72;5076712;28;45263;-69
2022/05/15 06:33:31;;;;;;;;;6.00;4.67;;;;;35.09;20.38;101089.94;5075968;28;45457;-71
2022/05/15 06:35:58;;;;;;;;;3.67;3.67;;;;;35.04;20.35;101061.88;5076811;28;46578;-71
2022/05/15 06:38:23;;;;;;;;;5.67;5.00;;;;;35.10;20.66;101086.19;5076615;28;45353;-85
2022/05/15 06:40:49;;;;;;;;;3.67;3.67;;;;;34.65;20.34;100998.75;5064937;28;45889;-89
2022/05/15 06:43:15;;;;;;;;;4.00;4.00;;;;;35.05;20.34;101085.72;5065432;27;45564;-83
2022/05/15 06:45:41;;;;;;;;;5.67;4.67;;;;;35.16;20.29;101105.03;5077785;27;48056;-82
2022/05/15 06:48:06;;;;;;;;;5.00;4.00;;;;;34.93;20.36;101064.63;5056432;28;45758;-84
2022/05/15 06:50:32;;;;;;;;;6.67;5.67;;;;;35.00;20.30;101077.78;5065758;28;45586;-83
2022/05/15 06:52:58;;;;;;;;;5.33;5.00;;;;;35.09;20.36;101109.25;5056315;28;45484;-76
2022/05/15 06:55:24;;;;;;;;;5.00;5.00;;;;;35.15;20.58;101117.06;5071787;28;45530;-78
2022/05/15 06:57:53;;;;;;;;;2.67;2.67;;;;;35.27;20.51;101117.94;5058713;28;45788;-77
2022/05/15 07:00:25;;;;;;;;;4.33;4.00;;;;;35.15;19.90;101094.13;5061414;28;45794;-77
2022/05/15 07:02:50;;;;;;;;;8.00;5.67;;;;;35.18;20.00;101083.72;5059766;28;45820;-78
2022/05/15 07:05:21;;;;;;;;;4.00;3.00;;;;;35.41;19.97;101097.56;5065896;28;45491;-78
2022/05/15 07:07:47;;;;;;;;;3.67;3.00;;;;;35.48;20.37;101081.41;5057147;28;46287;-79
2022/05/15 07:10:12;;;;;;;;;4.00;4.00;;;;;35.46;19.83;101055.78;5057013;27;45502;-82
2022/05/15 07:12:38;;;;;;;;;4.00;4.00;;;;;35.66;19.97;101062.44;5053360;28;45447;-81
2022/05/15 07:15:05;;;;;;;;;4.00;4.00;;;;;35.96;20.09;101088.53;5058675;28;46375;-80
2022/05/15 07:17:31;;;;;;;;;3.00;3.00;;;;;36.12;19.63;101097.28;5056336;28;45939;-78
2022/05/15 07:19:57;;;;;;;;;4.00;4.00;;;;;36.18;19.54;101071.03;5057872;28;45481;-78
2022/05/15 07:22:22;;;;;;;;;5.33;4.00;;;;;36.38;19.75;101080.41;5061021;28;45664;-78
2022/05/15 07:24:48;;;;;;;;;5.67;3.67;;;;;36.50;19.73;101084.00;5057188;28;45527;-81
2022/05/15 07:27:14;;;;;;;;;5.00;5.00;;;;;36.51;19.67;101061.78;5061923;28;45406;-75
2022/05/15 07:29:41;;;;;;;;;3.67;3.00;;;;;36.62;19.34;101065.50;5065085;27;45489;-72
2022/05/15 07:32:08;;;;;;;;;3.00;3.00;;;;;36.71;18.96;101064.69;5065149;28;45763;-77
2022/05/15 07:34:34;;;;;;;;;4.00;4.00;;;;;36.82;19.61;101061.03;5063113;28;46136;-74
2022/05/15 07:37:00;;;;;;;;;3.00;3.00;;;;;37.01;18.73;101065.81;5054886;28;45571;-69
2022/05/15 07:39:25;;;;;;;;;2.00;2.00;;;;;37.00;18.64;101056.63;5050620;28;46189;-70
2022/05/15 07:41:51;;;;;;;;;2.33;2.33;;;;;37.07;18.53;101054.19;5063537;28;45454;-70
2022/05/15 07:44:17;;;;;;;;;2.00;2.00;;;;;37.11;18.50;101039.06;5057260;28;46352;-71
2022/05/15 07:46:43;;;;;;;;;4.00;4.00;;;;;37.21;19.00;101053.81;5057506;28;45626;-71
2022/05/15 07:49:09;;;;;;;;;3.33;3.33;;;;;37.17;18.50;101049.59;5064671;28;45711;-71
2022/05/15 07:51:35;;;;;;;;;2.00;2.00;;;;;37.21;18.64;101048.28;5058595;28;45521;-71
2022/05/15 07:54:01;;;;;;;;;5.00;4.00;;;;;37.27;18.38;101037.69;5059602;28;45973;-72
2022/05/15 07:56:27;;;;;;;;;7.00;3.33;;;;;37.35;18.52;101046.22;5070401;27;45588;-72
2022/05/15 07:58:52;;;;;;;;;2.00;2.00;;;;;37.14;17.94;101000.06;5062168;28;45848;-71
2022/05/15 08:01:18;;;;;;;;;3.00;3.00;;;;;37.46;17.93;101031.41;5067634;28;45651;-71
2022/05/15 08:03:44;;;;;;;;;5.67;3.33;;;;;37.48;17.73;101019.16;5066041;28;45595;-71
2022/05/15 08:08:57;;;;;;;;;3.00;3.00;;;;;37.64;17.94;101031.59;5064132;28;45490;-71
2022/05/15 08:11:26;;;;;;;;;2.00;2.00;;;;;37.54;17.64;101013.09;5064448;28;45577;-71
2022/05/15 08:13:52;;;;;;;;;3.00;3.00;;;;;37.61;17.79;101027.25;5061802;28;45453;-71
2022/05/15 08:16:17;;;;;;;;;2.33;2.00;;;;;37.64;18.17;101020.53;5059868;28;45559;-70
2022/05/15 08:24:10;;;;;;;;;4.00;2.00;;;;;37.63;17.75;100997.53;5055103;28;45886;-70
2022/05/15 08:26:37;;;;;;;;;2.00;2.00;;;;;37.68;17.47;100994.31;5057644;28;45410;-70
2022/05/15 08:29:03;;;;;;;;;1.67;1.67;;;;;37.73;17.75;100983.69;5058329;28;45709;-71
2022/05/15 08:31:28;;;;;;;;;3.00;3.00;;;;;37.77;17.97;100981.56;5062112;27;45476;-71
2022/05/15 08:33:54;;;;;;;;;2.00;2.00;;;;;37.90;17.80;100996.88;5057836;28;45613;-70
2022/05/15 08:36:20;;;;;;;;;6.33;4.00;;;;;38.00;17.69;100993.25;5057921;28;45346;-81
2022/05/15 08:38:45;;;;;;;;;4.00;3.33;;;;;38.10;17.10;100989.47;5065024;28;45347;-80
2022/05/15 08:41:46;;;;;;;;;2.00;2.00;;;;;38.12;17.05;100989.31;5060392;28;45714;-83
2022/05/15 08:44:29;;;;;;;;;2.33;1.67;;;;;38.02;17.78;100947.75;5035623;28;46617;-83
2022/05/15 08:47:17;;;;;;;;;2.00;2.00;;;;;38.44;17.14;100988.19;5055978;28;45533;-83
2022/05/15 08:49:44;;;;;;;;;2.00;2.00;;;;;38.37;17.57;100960.19;5072824;28;45491;-83
2022/05/15 08:52:44;;;;;;;;;4.33;3.00;;;;;38.61;16.97;100978.22;5056689;28;45402;-83
2022/05/15 08:55:15;;;;;;;;;5.00;3.00;;;;;38.60;17.09;100973.72;4978491;28;47992;-83
2022/05/15 08:57:55;;;;;;;;;3.00;2.00;;;;;38.70;17.39;100987.59;4978912;28;45488;-83
2022/05/15 09:00:26;;;;;;;;;2.00;2.00;;;;;38.74;16.55;100975.16;4995121;28;45589;-82
2022/05/15 09:02:56;;;;;;;;;2.00;2.00;;;;;38.67;16.72;100966.53;4995500;28;45658;-83
2022/05/15 09:05:21;;;;;;;;;3.00;2.33;;;;;38.65;16.71;100957.50;4995948;28;45438;-83
2022/05/15 09:08:09;;;;;;;;;4.00;2.00;;;;;38.74;16.60;100977.94;4995487;28;45409;-83
2022/05/15 09:10:56;;;;;;;;;2.00;2.00;;;;;38.56;16.26;100945.41;4995455;28;45575;-83
2022/05/15 09:13:34;;;;;;;;;2.00;2.00;;;;;38.72;16.87;100952.25;4979072;28;45615;-83
2022/05/15 09:16:03;;;;;;;;;2.00;2.00;;;;;38.57;16.30;100899.16;4978807;28;46867;-84
2022/05/15 09:18:30;;;;;;;;;1.00;1.00;;;;;38.41;16.22;100880.38;4995248;28;45485;-83
2022/05/15 09:21:01;;;;;;;;;1.67;1.67;;;;;38.55;15.87;100879.91;4995366;28;45503;-83
2022/05/15 09:23:46;;;;;;;;;2.67;1.67;;;;;39.19;15.39;100971.69;4994931;28;45305;-83
2022/05/15 09:26:19;;;;;;;;;2.00;2.00;;;;;39.27;15.41;100971.78;4995480;28;46515;-83
2022/05/15 09:28:53;;;;;;;;;1.75;1.75;;;;;39.16;15.61;100938.69;5001996;28;45528;-83
2022/05/15 09:31:30;;;;;;;;;2.00;2.00;;;;;39.33;15.45;100972.22;5069004;27;45331;-83
2022/05/15 09:34:03;;;;;;;;;1.00;1.00;;;;;39.38;15.75;100961.50;5077718;28;45368;-83
2022/05/15 09:36:28;;;;;;;;;2.00;2.00;;;;;39.50;15.10;100963.03;5075762;27;47959;-83
2022/05/15 09:39:24;;;;;;;;;2.67;2.67;;;;;39.61;15.33;100953.66;5077195;27;45310;-83
2022/05/15 09:45:19;;;;;;;;;2.33;2.33;;;;;39.68;15.10;100959.44;5077642;27;45484;-83
2022/05/15 09:48:06;;;;;;;;;3.67;2.00;;;;;39.54;14.73;100924.75;5075827;28;47792;-83
2022/05/15 09:50:46;;;;;;;;;2.00;2.00;;;;;39.83;15.20;100952.31;5075398;27;45676;-83
2022/05/15 09:53:26;;;;;;;;;3.67;3.33;;;;;39.72;15.05;100897.00;5077201;27;45473;-83
2022/05/15 09:56:07;;;;;;;;;1.67;1.33;;;;;40.13;15.07;100948.31;5077335;28;45523;-83
2022/05/15 09:58:46;;;;;;;;;3.00;2.00;;;;;40.22;14.96;100959.50;5077086;28;46441;-83
2022/05/15 10:01:49;;;;;;;;;2.33;2.00;;;;;39.90;14.44;100895.13;5075584;27;45610;-83
2022/05/15 10:04:25;;;;;;;;;2.00;2.00;;;;;40.31;14.66;100947.41;5067120;28;45442;-83
2022/05/15 10:06:59;;;;;;;;;1.33;1.33;;;;;40.18;14.42;100914.47;5075464;27;45650;-83
2022/05/15 10:09:33;;;;;;;;;1.00;1.00;;;;;40.38;14.80;100939.28;5077026;27;45575;-83
2022/05/15 10:12:04;;;;;;;;;4.00;3.00;;;;;40.21;14.65;100894.72;5076819;28;45424;-83
2022/05/15 10:14:40;;;;;;;;;2.33;2.33;;;;;40.43;14.68;100929.44;5077028;28;45531;-83
2022/05/15 10:17:07;;;;;;;;;2.00;2.00;;;;;40.27;14.77;100913.50;5077010;28;45448;-83
2022/05/15 10:20:04;;;;;;;;;1.67;1.67;;;;;40.41;14.53;100908.38;5075029;28;47189;-83
2022/05/15 10:22:37;;;;;;;;;3.00;2.00;;;;;40.53;14.33;100906.25;5076096;27;45463;-84
2022/05/15 10:25:35;;;;;;;;;3.67;3.67;;;;;40.52;14.46;100901.72;5076868;28;45428;-83
2022/05/15 10:28:12;;;;;;;;;5.00;5.00;;;;;40.63;14.37;100909.78;5076646;27;45427;-83
2022/05/15 10:30:56;;;;;;;;;4.67;4.67;;;;;40.47;14.80;100874.38;5076025;27;46605;-84
2022/05/15 10:33:21;;;;;;;;;5.00;4.00;;;;;40.61;14.91;100879.38;5075073;28;45718;-84
2022/05/15 10:36:18;;;;;;;;;2.33;2.33;;;;;40.82;14.67;100897.56;5076311;27;45330;-83
2022/05/15 10:39:02;;;;;;;;;2.00;2.00;;;;;40.85;14.35;100897.22;5075817;27;45618;-80
2022/05/15 10:41:58;;;;;;;;;1.67;1.67;;;;;40.77;14.17;100888.84;5076190;27;45381;-80
2022/05/15 10:44:46;;;;;;;;;2.00;2.00;;;;;40.76;13.92;100895.44;5075165;27;45401;-82
2022/05/15 10:47:21;;;;;;;;;2.00;2.00;;;;;40.63;14.05;100860.63;5075577;27;45545;-81
2022/05/15 10:49:49;;;;;;;;;3.00;2.00;;;;;40.93;13.97;100894.53;5076172;28;45473;-81
2022/05/15 10:52:36;;;;;;;;;2.00;2.00;;;;;41.03;14.06;100896.28;5075289;27;47376;-79
2022/05/15 10:58:06;;;;;;;;;2.00;2.00;;;;;41.04;13.66;100890.53;5076329;28;45432;-84
2022/05/15 11:00:43;;;;;;;;;5.67;5.00;;;;;41.18;13.51;100891.81;5076181;28;45252;-83
2022/05/15 11:03:36;;;;;;;;;7.00;7.00;;;;;41.19;13.92;100879.66;5076047;27;45759;-84
2022/05/15 11:06:31;;;;;;;;;8.33;7.33;;;;;40.97;13.53;100829.16;5074074;27;45415;-83
2022/05/15 11:09:13;;;;;;;;;5.00;5.00;;;;;41.27;13.71;100868.56;5074663;28;45376;-83
2022/05/15 11:12:16;;;;;;;;;2.00;2.00;;;;;41.28;14.13;100850.81;5074371;28;45409;-84
2022/05/15 11:15:05;;;;;;;;;5.00;4.00;;;;;41.20;13.65;100845.22;5032964;28;47541;-84
2022/05/15 11:17:49;;;;;;;;;4.67;3.00;;;;;41.32;12.92;100860.56;5033510;28;45410;-84
2022/05/15 11:20:22;;;;;;;;;3.75;2.25;;;;;41.37;13.26;100856.44;5033450;28;45636;-84
2022/05/15 11:22:54;;;;;;;;;4.67;4.67;;;;;41.28;12.89;100859.16;5016519;28;45597;-84
2022/05/15 11:25:30;;;;;;;;;3.00;3.00;;;;;41.12;12.99;100821.00;5033046;28;45786;-85
2022/05/15 11:28:08;;;;;;;;;11.00;8.67;;;;;41.22;13.34;100820.84;5032968;28;45753;-84
2022/05/15 11:30:39;;;;;;;;;2.67;2.33;;;;;41.46;13.02;100845.13;5027515;28;45509;-84
2022/05/15 11:33:09;;;;;;;;;4.00;4.00;;;;;41.43;12.92;100839.03;5012917;28;45326;-83
2022/05/15 11:35:41;;;;;;;;;6.00;4.00;;;;;41.49;13.60;100827.19;5013331;28;45534;-84
2022/05/15 11:38:27;;;;;;;;;3.67;3.00;;;;;41.51;13.05;100830.69;4996569;28;45436;-84
2022/05/15 11:40:54;;;;;;;;;6.00;6.00;;;;;41.30;12.89;100806.97;4996705;28;46301;-84
2022/05/15 11:43:33;;;;;;;;;4.67;4.67;;;;;41.54;13.14;100823.91;5013145;28;45542;-84
2022/05/15 11:46:00;;;;;;;;;3.00;3.00;;;;;41.51;13.15;100825.13;5013012;28;46418;-84
2022/05/15 11:48:43;;;;;;;;;3.33;2.67;;;;;41.62;12.92;100833.16;5012795;28;45583;-84
2022/05/15 11:51:14;;;;;;;;;5.00;4.00;;;;;41.66;12.88;100820.63;5032464;28;45315;-84
2022/05/15 11:53:54;;;;;;;;;3.00;3.00;;;;;41.47;13.16;100785.59;5033851;28;45592;-84
2022/05/15 11:56:40;;;;;;;;;3.33;3.33;;;;;41.76;12.84;100827.91;5035055;28;45405;-84